createdAt,value
2023-03-12T00:01:24.137Z,100784.63
2023-03-12T00:03:51.471Z,100784.69
2023-03-12T00:06:19.734Z,100776.53
2023-03-12T00:08:48.183Z,100787.09
2023-03-12T00:11:19.315Z,100769.44
2023-03-12T00:13:50.814Z,100773.16
2023-03-12T00:16:18.655Z,100773.81
2023-03-12T00:18:49.683Z,100760.50
2023-03-12T00:21:16.562Z,100774.91
2023-03-12T00:23:43.841Z,100766.84
2023-03-12T00:26:13.693Z,100763.34
2023-03-12T00:28:41.725Z,100762.59
2023-03-12T00:31:22.760Z,100751.94
2023-03-12T00:33:50.404Z,100747.84
2023-03-12T00:36:21.334Z,100746.03
2023-03-12T00:38:48.189Z,100739.13
2023-03-12T00:41:15.093Z,100732.00
2023-03-12T00:43:41.937Z,100741.84
2023-03-12T00:46:08.813Z,100736.63
2023-03-12T00:48:36.557Z,100736.63
2023-03-12T00:51:03.703Z,100731.44
2023-03-12T00:53:30.606Z,100734.78
2023-03-12T00:55:57.680Z,100728.38
2023-03-12T00:58:24.740Z,100723.78
2023-03-12T01:00:51.892Z,100732.81
2023-03-12T01:03:18.921Z,100722.84
2023-03-12T01:05:45.812Z,100725.63
2023-03-12T01:08:12.834Z,100729.13
2023-03-12T01:10:43.007Z,100720.28
2023-03-12T01:13:09.918Z,100714.94
2023-03-12T01:15:37.122Z,100722.03
2023-03-12T01:18:04.164Z,100715.19
2023-03-12T01:20:31.004Z,100710.09
2023-03-12T01:22:57.792Z,100706.69
2023-03-12T01:25:24.637Z,100701.41
2023-03-12T01:27:52.046Z,100703.13
2023-03-12T01:30:19.040Z,100702.28
2023-03-12T01:32:46.180Z,100699.56
2023-03-12T01:35:13.316Z,100697.59
2023-03-12T01:37:40.411Z,100707.13
2023-03-12T01:40:07.895Z,100704.41
2023-03-12T01:42:34.737Z,100696.97
2023-03-12T01:45:05.256Z,100691.53
2023-03-12T01:47:33.548Z,100684.22
2023-03-12T01:50:05.740Z,100684.22
2023-03-12T01:52:38.145Z,100680.88
2023-03-12T01:55:12.703Z,100670.56
2023-03-12T01:58:02.472Z,100671.78
2023-03-12T02:00:29.652Z,100661.31
2023-03-12T02:03:15.951Z,100659.66
2023-03-12T02:05:53.443Z,100653.44
2023-03-12T02:08:23.115Z,100658.88
2023-03-12T02:10:50.424Z,100664.19
2023-03-12T02:13:20.789Z,100661.59
2023-03-12T02:15:51.326Z,100657.16
2023-03-12T02:18:21.674Z,100655.41
2023-03-12T02:21:20.147Z,100655.41
2023-03-12T02:24:34.221Z,100649.16
2023-03-12T02:27:02.497Z,100644.47
2023-03-12T02:29:33.095Z,100640.91
2023-03-12T02:32:04.540Z,100643.56
2023-03-12T02:34:31.680Z,100637.38
2023-03-12T02:36:58.573Z,100639.16
2023-03-12T02:39:26.187Z,100630.41
2023-03-12T02:41:57.764Z,100624.25
2023-03-12T02:44:29.531Z,100615.47
2023-03-12T02:47:01.128Z,100616.34
2023-03-12T02:49:32.845Z,100616.47
2023-03-12T02:52:00.799Z,100616.47
2023-03-12T02:54:29.314Z,100605.69
2023-03-12T02:56:57.256Z,100610.88
2023-03-12T02:59:26.843Z,100618.34
2023-03-12T03:02:00.053Z,100602.34
2023-03-12T03:04:29.780Z,100607.03
2023-03-12T03:06:56.925Z,100603.47
2023-03-12T03:09:25.294Z,100602.94
2023-03-12T03:11:52.995Z,100599.38
2023-03-12T03:14:20.209Z,100601.97
2023-03-12T03:16:50.514Z,100600.28
2023-03-12T03:19:18.348Z,100591.53
2023-03-12T03:21:45.216Z,100598.72
2023-03-12T03:24:12.121Z,100598.78
2023-03-12T03:26:39.268Z,100602.28
2023-03-12T03:29:06.316Z,100608.44
2023-03-12T03:31:33.578Z,100605.31
2023-03-12T03:34:00.704Z,100600.59
2023-03-12T03:36:27.744Z,100598.59
2023-03-12T03:39:04.999Z,100600.09
2023-03-12T03:41:32.981Z,100599.19
2023-03-12T03:44:00.015Z,100594.75
2023-03-12T03:46:29.245Z,100593.00
2023-03-12T03:49:02.533Z,100587.94
2023-03-12T03:51:30.423Z,100588.75
2023-03-12T03:54:01.429Z,100587.94
2023-03-12T03:56:29.295Z,100588.22
2023-03-12T03:58:58.770Z,100585.66
2023-03-12T04:01:26.657Z,100579.53
2023-03-12T04:03:54.809Z,100579.63
2023-03-12T04:06:22.044Z,100575.03
2023-03-12T04:08:49.344Z,100557.22
2023-03-12T04:11:21.728Z,100552.97
2023-03-12T04:13:49.955Z,100561.75
2023-03-12T04:16:20.218Z,100553.75
2023-03-12T04:18:49.126Z,100542.28
2023-03-12T04:21:17.307Z,100536.97
2023-03-12T04:23:45.143Z,100542.28
2023-03-12T04:26:13.745Z,100531.69
2023-03-12T04:28:40.569Z,100531.78
2023-03-12T04:31:10.760Z,100526.28
2023-03-12T04:33:42.039Z,100517.38
2023-03-12T04:36:13.411Z,100508.31
2023-03-12T04:38:43.164Z,100500.31
2023-03-12T04:41:14.361Z,100492.44
2023-03-12T04:43:47.712Z,100484.44
2023-03-12T04:46:16.356Z,100483.38
2023-03-12T04:48:44.612Z,100479.78
2023-03-12T04:51:12.877Z,100481.63
2023-03-12T04:53:40.665Z,100485.97
2023-03-12T04:56:09.839Z,100493.03
2023-03-12T04:58:37.812Z,100486.31
2023-03-12T05:01:05.745Z,100479.38
2023-03-12T05:03:33.291Z,100486.47
2023-03-12T05:06:00.817Z,100480.09
2023-03-12T05:08:27.765Z,100484.47
2023-03-12T05:10:55.155Z,100472.78
2023-03-12T05:13:23.119Z,100473.78
2023-03-12T05:15:53.894Z,100469.88
2023-03-12T05:18:21.577Z,100456.50
2023-03-12T05:21:09.880Z,100449.44
2023-03-12T05:23:39.213Z,100441.50
2023-03-12T05:26:06.758Z,100437.75
2023-03-12T05:28:34.839Z,100439.63
2023-03-12T05:31:11.299Z,100436.03
2023-03-12T05:33:38.629Z,100440.47
2023-03-12T05:36:06.334Z,100439.50
2023-03-12T05:38:34.592Z,100446.28
2023-03-12T05:41:03.026Z,100443.63
2023-03-12T05:43:34.394Z,100445.34
2023-03-12T05:46:05.058Z,100435.63
2023-03-12T05:48:33.904Z,100433.75
2023-03-12T05:51:01.896Z,100432.06
2023-03-12T05:53:29.042Z,100432.16
2023-03-12T05:55:56.114Z,100434.16
2023-03-12T05:58:23.206Z,100433.56
2023-03-12T06:00:51.190Z,100444.56
2023-03-12T06:03:18.163Z,100429.50
2023-03-12T06:05:47.952Z,100431.81
2023-03-12T06:08:15.215Z,100439.91
2023-03-12T06:10:42.219Z,100432.69
2023-03-12T06:13:09.239Z,100435.38
2023-03-12T06:15:36.142Z,100432.69
2023-03-12T06:18:05.317Z,100425.63
2023-03-12T06:20:33.875Z,100424.88
2023-03-12T06:23:00.724Z,100434.56
2023-03-12T06:25:27.964Z,100428.28
2023-03-12T06:27:54.789Z,100443.50
2023-03-12T06:30:21.805Z,100450.03
2023-03-12T06:32:48.746Z,100443.91
2023-03-12T06:35:16.406Z,100443.78
2023-03-12T06:37:46.671Z,100445.50
2023-03-12T06:40:13.767Z,100436.13
2023-03-12T06:42:40.603Z,100433.50
2023-03-12T06:45:08.536Z,100426.44
2023-03-12T06:47:35.321Z,100425.75
2023-03-12T06:50:02.224Z,100418.78
2023-03-12T06:52:29.066Z,100418.97
2023-03-12T06:54:55.903Z,100429.03
2023-03-12T06:57:22.704Z,100413.50
2023-03-12T06:59:50.647Z,100414.47
2023-03-12T07:02:17.912Z,100407.31
2023-03-12T07:04:44.934Z,100401.88
2023-03-12T07:07:11.999Z,100396.38
2023-03-12T07:09:38.933Z,100399.66
2023-03-12T07:12:06.076Z,100390.19
2023-03-12T07:14:32.912Z,100402.56
2023-03-12T07:17:01.982Z,100400.97
2023-03-12T07:19:30.369Z,100399.22
2023-03-12T07:21:57.786Z,100400.69
2023-03-12T07:24:24.670Z,100400.69
2023-03-12T07:26:51.487Z,100398.69
2023-03-12T07:29:18.327Z,100408.50
2023-03-12T07:31:45.228Z,100394.97
2023-03-12T07:34:12.430Z,100386.97
2023-03-12T07:36:39.696Z,100395.50
2023-03-12T07:39:06.540Z,100395.38
2023-03-12T07:41:33.499Z,100390.97
2023-03-12T07:44:00.478Z,100393.34
2023-03-12T07:46:27.627Z,100397.75
2023-03-12T07:48:54.500Z,100393.28
2023-03-12T07:51:21.431Z,100392.94
2023-03-12T07:53:48.970Z,100392.94
2023-03-12T07:56:16.018Z,100411.47
2023-03-12T07:58:43.589Z,100406.94
2023-03-12T08:01:10.548Z,100413.13
2023-03-12T08:03:39.000Z,100409.59
2023-03-12T08:06:06.977Z,100411.47
2023-03-12T08:08:34.101Z,100402.28
2023-03-12T08:11:04.652Z,100407.59
2023-03-12T08:13:31.618Z,100412.66
2023-03-12T08:15:58.962Z,100406.41
2023-03-12T08:18:26.210Z,100401.06
2023-03-12T08:20:54.683Z,100401.72
2023-03-12T08:23:22.570Z,100399.84
2023-03-12T08:25:50.478Z,100399.84
2023-03-12T08:28:18.733Z,100403.31
2023-03-12T08:30:55.694Z,100411.03
2023-03-12T08:33:23.118Z,100411.69
2023-03-12T08:35:50.584Z,100401.72
2023-03-12T08:38:17.432Z,100404.03
2023-03-12T08:40:44.717Z,100389.75
2023-03-12T08:43:11.752Z,100405.47
2023-03-12T08:45:38.967Z,100420.34
2023-03-12T08:48:08.009Z,100412.06
2023-03-12T08:50:34.814Z,100417.97
2023-03-12T08:53:01.701Z,100420.34
2023-03-12T08:55:28.582Z,100421.69
2023-03-12T08:57:56.604Z,100419.75
2023-03-12T09:00:25.127Z,100426.69
2023-03-12T09:02:53.996Z,100426.38
2023-03-12T09:05:20.995Z,100428.75
2023-03-12T09:07:47.917Z,100433.03
2023-03-12T09:10:14.837Z,100423.75
2023-03-12T09:12:41.816Z,100418.09
2023-03-12T09:15:09.888Z,100429.25
2023-03-12T09:17:37.798Z,100426.31
2023-03-12T09:20:08.483Z,100425.84
2023-03-12T09:22:37.044Z,100422.63
2023-03-12T09:25:06.973Z,100420.25
2023-03-12T09:27:47.013Z,100422.47
2023-03-12T09:30:26.465Z,100416.56
2023-03-12T09:32:53.818Z,100417.78
2023-03-12T09:35:20.649Z,100411.94
2023-03-12T09:37:51.424Z,100423.75
2023-03-12T09:40:23.531Z,100424.19
2023-03-12T09:43:03.340Z,100419.22
2023-03-12T09:45:38.184Z,100423.94
2023-03-12T09:48:13.962Z,100431.31
2023-03-12T09:50:48.906Z,100424.50
2023-03-12T09:53:41.220Z,100432.97
2023-03-12T09:56:17.676Z,100437.81
2023-03-12T09:58:49.454Z,100444.44
2023-03-12T10:01:55.446Z,100438.47
2023-03-12T10:04:58.992Z,100439.38
2023-03-12T10:07:47.966Z,100444.75
2023-03-12T10:10:28.305Z,100442.97
2023-03-12T10:13:16.107Z,100444.13
2023-03-12T10:16:10.232Z,100450.69
2023-03-12T10:19:22.094Z,100446.31
2023-03-12T10:22:08.196Z,100440.03
2023-03-12T10:25:04.887Z,100439.25
2023-03-12T10:27:37.219Z,100443.19
2023-03-12T10:30:19.413Z,100430.84
2023-03-12T10:32:57.395Z,100421.41
2023-03-12T10:35:30.435Z,100423.63
2023-03-12T10:38:03.532Z,100440.13
2023-03-12T10:40:41.319Z,100438.59
2023-03-12T10:43:09.830Z,100432.13
2023-03-12T10:46:01.530Z,100429.84
2023-03-12T10:48:28.453Z,100434.41
2023-03-12T10:51:04.895Z,100432.44
2023-03-12T10:53:39.076Z,100428.19
2023-03-12T10:56:17.543Z,100429.59
2023-03-12T10:58:48.649Z,100437.78
2023-03-12T11:01:15.538Z,100428.75
2023-03-12T11:03:45.841Z,100432.19
2023-03-12T11:06:27.127Z,100440.19
2023-03-12T11:09:26.433Z,100441.03
2023-03-12T11:11:53.280Z,100435.84
2023-03-12T11:14:24.851Z,100433.25
2023-03-12T11:16:54.347Z,100450.28
2023-03-12T11:19:34.256Z,100451.38
2023-03-12T11:22:05.750Z,100447.41
2023-03-12T11:24:33.073Z,100447.16
2023-03-12T11:27:18.950Z,100451.34
2023-03-12T11:29:50.704Z,100455.25
2023-03-12T11:32:31.183Z,100463.56
2023-03-12T11:35:01.114Z,100457.78
2023-03-12T11:38:06.266Z,100465.25
2023-03-12T11:40:45.730Z,100466.00
2023-03-12T11:43:42.011Z,100457.81
2023-03-12T11:46:29.348Z,100462.22
2023-03-12T11:49:01.699Z,100460.63
2023-03-12T11:51:38.882Z,100450.41
2023-03-12T11:54:55.237Z,100465.38
2023-03-12T11:57:47.760Z,100459.97
2023-03-12T12:00:25.966Z,100462.78
2023-03-12T12:03:39.115Z,100459.78
2023-03-12T12:06:50.207Z,100456.56
2023-03-12T12:09:30.391Z,100445.53
2023-03-12T12:12:27.624Z,100439.53
2023-03-12T12:15:12.443Z,100430.66
2023-03-12T12:18:21.295Z,100411.56
2023-03-12T12:21:06.101Z,100405.63
2023-03-12T12:23:44.613Z,100415.34
2023-03-12T12:26:32.979Z,100410.16
2023-03-12T12:29:21.232Z,100413.81
2023-03-12T12:31:57.652Z,100402.50
2023-03-12T12:34:30.482Z,100410.44
2023-03-12T12:37:30.145Z,100401.09
2023-03-12T12:40:23.360Z,100398.56
2023-03-12T12:43:06.980Z,100395.75
2023-03-12T12:45:40.916Z,100401.16
2023-03-12T12:48:20.549Z,100386.91
2023-03-12T12:50:51.815Z,100390.84
2023-03-12T12:53:38.200Z,100395.44
2023-03-12T12:56:28.254Z,100392.91
2023-03-12T12:59:31.670Z,100389.31
2023-03-12T13:02:02.674Z,100380.47
2023-03-12T13:04:38.498Z,100388.47
2023-03-12T13:07:14.249Z,100382.97
2023-03-12T13:09:51.155Z,100374.88
2023-03-12T13:12:25.325Z,100374.88
2023-03-12T13:14:56.441Z,100380.03
2023-03-12T13:17:56.443Z,100376.56
2023-03-12T13:20:35.243Z,100370.09
2023-03-12T13:23:55.267Z,100370.00
2023-03-12T13:26:42.886Z,100359.47
2023-03-12T13:29:28.498Z,100358.53
2023-03-12T13:31:56.528Z,100370.16
2023-03-12T13:34:26.825Z,100363.81
2023-03-12T13:37:02.204Z,100368.75
2023-03-12T13:39:38.495Z,100355.84
2023-03-12T13:42:23.682Z,100346.69
2023-03-12T13:44:53.425Z,100366.06
2023-03-12T13:47:29.871Z,100372.47
2023-03-12T13:50:12.913Z,100353.06
2023-03-12T13:52:39.857Z,100356.28
2023-03-12T13:55:21.070Z,100354.81
2023-03-12T13:58:02.481Z,100364.66
2023-03-12T14:00:36.469Z,100373.00
2023-03-12T14:03:16.308Z,100364.94
2023-03-12T14:05:56.342Z,100370.31
2023-03-12T14:09:13.055Z,100369.09
2023-03-12T14:11:52.237Z,100377.72
2023-03-12T14:14:49.385Z,100377.31
2023-03-12T14:17:27.756Z,100384.22
2023-03-12T14:20:02.034Z,100386.63
2023-03-12T14:22:34.917Z,100393.41
2023-03-12T14:25:14.566Z,100395.13
2023-03-12T14:27:47.627Z,100397.44
2023-03-12T14:30:36.114Z,100390.72
2023-03-12T14:33:04.216Z,100395.88
2023-03-12T14:35:44.332Z,100395.41
2023-03-12T14:38:26.216Z,100401.16
2023-03-12T14:41:03.336Z,100414.31
2023-03-12T14:43:35.219Z,100406.09
2023-03-12T14:46:13.166Z,100404.38
2023-03-12T14:48:40.561Z,100401.78
2023-03-12T14:51:08.421Z,100393.66
2023-03-12T14:53:38.050Z,100394.41
2023-03-12T14:56:15.580Z,100395.16
2023-03-12T14:58:49.033Z,100407.94
2023-03-12T15:01:25.960Z,100400.69
2023-03-12T15:04:01.135Z,100396.84
2023-03-12T15:06:39.913Z,100400.28
2023-03-12T15:09:14.104Z,100405.97
2023-03-12T15:11:41.007Z,100413.94
2023-03-12T15:14:14.710Z,100407.66
2023-03-12T15:16:44.407Z,100411.09
2023-03-12T15:19:16.288Z,100405.47
2023-03-12T15:21:44.811Z,100406.69
2023-03-12T15:24:14.112Z,100406.16
2023-03-12T15:26:43.801Z,100405.69
2023-03-12T15:29:27.077Z,100403.72
2023-03-12T15:32:00.721Z,100394.28
2023-03-12T15:34:36.497Z,100402.25
2023-03-12T15:37:38.322Z,100394.63
2023-03-12T15:40:21.105Z,100393.91
2023-03-12T15:42:49.414Z,100399.81
2023-03-12T15:45:39.093Z,100398.59
2023-03-12T15:48:19.581Z,100402.78
2023-03-12T15:50:46.558Z,100400.53
2023-03-12T15:53:16.313Z,100396.25
2023-03-12T15:56:05.453Z,100398.22
2023-03-12T15:58:41.690Z,100404.88
2023-03-12T16:01:15.865Z,100399.81
2023-03-12T16:03:45.793Z,100406.19
2023-03-12T16:06:20.383Z,100386.19
2023-03-12T16:08:58.194Z,100390.72
2023-03-12T16:11:32.067Z,100383.59
2023-03-12T16:14:17.096Z,100381.84
2023-03-12T16:16:44.574Z,100380.16
2023-03-12T16:19:18.850Z,100378.41
2023-03-12T16:21:45.841Z,100385.66
2023-03-12T16:24:14.314Z,100391.19
2023-03-12T16:26:58.779Z,100382.13
2023-03-12T16:29:34.254Z,100377.94
2023-03-12T16:32:02.097Z,100386.16
2023-03-12T16:34:29.104Z,100389.09
2023-03-12T16:36:56.630Z,100389.34
2023-03-12T16:39:23.890Z,100381.63
2023-03-12T16:41:50.771Z,100378.41
2023-03-12T16:44:21.773Z,100370.53
2023-03-12T16:46:48.797Z,100373.50
2023-03-12T16:49:19.656Z,100377.16
2023-03-12T16:51:47.730Z,100382.78
2023-03-12T16:54:14.607Z,100380.25
2023-03-12T16:56:46.319Z,100374.22
2023-03-12T16:59:25.365Z,100378.72
2023-03-12T17:01:52.797Z,100387.94
2023-03-12T17:04:19.713Z,100394.56
2023-03-12T17:06:46.562Z,100387.22
2023-03-12T17:09:13.484Z,100388.91
2023-03-12T17:11:40.938Z,100388.91
2023-03-12T17:14:22.660Z,100394.09
2023-03-12T17:16:50.587Z,100390.66
2023-03-12T17:19:17.801Z,100392.34
2023-03-12T17:21:45.220Z,100401.47
2023-03-12T17:24:16.538Z,100401.47
2023-03-12T17:26:45.394Z,100408.81
2023-03-12T17:29:12.262Z,100407.09
2023-03-12T17:31:39.161Z,100420.84
2023-03-12T17:34:06.453Z,100417.91
2023-03-12T17:36:37.800Z,100408.81
2023-03-12T17:39:04.976Z,100415.19
2023-03-12T17:41:33.455Z,100411.53
2023-03-12T17:44:02.175Z,100402.56
2023-03-12T17:46:31.564Z,100400.84
2023-03-12T17:48:59.182Z,100409.91
2023-03-12T17:51:26.332Z,100417.38
2023-03-12T17:53:53.169Z,100412.97
2023-03-12T17:56:20.050Z,100414.69
2023-03-12T17:58:47.788Z,100415.56
2023-03-12T18:01:15.790Z,100411.00
2023-03-12T18:03:44.080Z,100422.44
2023-03-12T18:06:11.722Z,100428.69
2023-03-12T18:08:38.600Z,100425.03
2023-03-12T18:11:05.598Z,100434.09
2023-03-12T18:13:32.658Z,100419.75
2023-03-12T18:15:59.716Z,100430.66
2023-03-12T18:18:27.529Z,100428.19
2023-03-12T18:20:54.632Z,100429.19
2023-03-12T18:23:23.644Z,100433.09
2023-03-12T18:25:50.634Z,100429.66
2023-03-12T18:28:17.517Z,100425.34
2023-03-12T18:30:48.662Z,100414.41
2023-03-12T18:33:16.554Z,100421.56
2023-03-12T18:35:44.739Z,100420.56
2023-03-12T18:38:12.319Z,100417.13
2023-03-12T18:40:39.502Z,100418.09
2023-03-12T18:43:06.404Z,100413.69
2023-03-12T18:45:33.921Z,100407.44
2023-03-12T18:48:01.928Z,100403.09
2023-03-12T18:50:28.756Z,100403.84
2023-03-12T18:52:55.694Z,100405.69
2023-03-12T18:55:22.935Z,100405.81
2023-03-12T18:57:49.788Z,100396.84
2023-03-12T19:00:18.116Z,100402.38
2023-03-12T19:02:48.088Z,100406.91
2023-03-12T19:05:16.414Z,100407.03
2023-03-12T19:07:43.716Z,100391.69
2023-03-12T19:10:12.209Z,100391.56
2023-03-12T19:12:51.696Z,100391.69
2023-03-12T19:15:22.241Z,100392.53
2023-03-12T19:17:49.535Z,100390.81
2023-03-12T19:20:16.518Z,100387.13
2023-03-12T19:22:43.739Z,100389.09
2023-03-12T19:25:10.584Z,100379.28
2023-03-12T19:27:37.708Z,100384.78
2023-03-12T19:30:05.537Z,100375.97
2023-03-12T19:32:42.343Z,100383.94
2023-03-12T19:35:13.174Z,100381.13
2023-03-12T19:37:40.917Z,100380.25
2023-03-12T19:40:09.676Z,100369.34
2023-03-12T19:42:36.510Z,100371.06
2023-03-12T19:45:03.562Z,100375.72
2023-03-12T19:47:33.208Z,100367.00
2023-03-12T19:50:00.720Z,100350.91
2023-03-12T19:52:27.917Z,100355.69
2023-03-12T19:55:04.304Z,100355.06
2023-03-12T19:57:33.045Z,100349.66
2023-03-12T19:59:59.820Z,100345.59
2023-03-12T20:02:26.894Z,100338.66
2023-03-12T20:04:55.346Z,100347.88
2023-03-12T20:07:22.806Z,100343.69
2023-03-12T20:09:49.821Z,100334.22
2023-03-12T20:12:16.733Z,100324.75
2023-03-12T20:14:43.565Z,100318.72
2023-03-12T20:17:12.165Z,100320.91
2023-03-12T20:19:39.496Z,100313.28
2023-03-12T20:22:07.302Z,100302.81
2023-03-12T20:24:34.788Z,100303.28
2023-03-12T20:27:01.872Z,100298.34
2023-03-12T20:29:28.731Z,100301.41
2023-03-12T20:31:55.656Z,100290.84
2023-03-12T20:34:22.769Z,100294.75
2023-03-12T20:36:49.621Z,100294.75
2023-03-12T20:39:16.816Z,100287.63
2023-03-12T20:41:43.664Z,100281.47
2023-03-12T20:44:10.632Z,100275.13
2023-03-12T20:46:37.499Z,100277.81
2023-03-12T20:49:04.536Z,100266.28
2023-03-12T20:51:31.438Z,100274.72
2023-03-12T20:53:58.308Z,100269.16
2023-03-12T20:56:25.118Z,100268.63
2023-03-12T20:58:52.389Z,100270.78
2023-03-12T21:01:19.616Z,100263.16
2023-03-12T21:03:46.482Z,100261.69
2023-03-12T21:06:13.427Z,100251.13
2023-03-12T21:08:40.205Z,100255.75
2023-03-12T21:11:08.552Z,100254.78
2023-03-12T21:13:36.531Z,100253.06
2023-03-12T21:16:06.942Z,100245.72
2023-03-12T21:18:33.917Z,100243.56
2023-03-12T21:21:06.041Z,100246.75
2023-03-12T21:23:34.483Z,100242.88
2023-03-12T21:26:09.252Z,100232.09
2023-03-12T21:28:36.779Z,100235.00
2023-03-12T21:31:11.127Z,100228.19
2023-03-12T21:33:38.508Z,100227.97
2023-03-12T21:36:08.091Z,100222.59
2023-03-12T21:38:36.670Z,100209.84
2023-03-12T21:41:10.336Z,100203.97
2023-03-12T21:43:37.902Z,100212.59
2023-03-12T21:46:20.392Z,100192.72
2023-03-12T21:48:48.594Z,100197.03
2023-03-12T21:51:17.728Z,100188.84
2023-03-12T21:53:45.191Z,100186.88
2023-03-12T21:56:12.300Z,100189.47
2023-03-12T21:58:39.714Z,100187.03
2023-03-12T22:01:10.480Z,100183.38
2023-03-12T22:03:39.252Z,100167.69
2023-03-12T22:06:07.844Z,100171.00
2023-03-12T22:08:35.418Z,100154.56
2023-03-12T22:11:03.134Z,100157.28
2023-03-12T22:13:29.983Z,100144.78
2023-03-12T22:16:00.674Z,100133.75
2023-03-12T22:18:29.330Z,100130.81
2023-03-12T22:21:01.800Z,100116.94
2023-03-12T22:23:30.037Z,100112.44
2023-03-12T22:26:01.890Z,100110.47
2023-03-12T22:28:28.920Z,100101.38
2023-03-12T22:31:05.729Z,100094.03
2023-03-12T22:33:35.720Z,100101.88
2023-03-12T22:36:09.519Z,100100.66
2023-03-12T22:38:38.424Z,100093.31
2023-03-12T22:41:16.709Z,100088.66
2023-03-12T22:43:44.578Z,100086.81
2023-03-12T22:46:12.007Z,100072.47
2023-03-12T22:48:38.844Z,100073.66
2023-03-12T22:51:06.149Z,100069.00
2023-03-12T22:53:34.256Z,100066.06
2023-03-12T22:56:08.906Z,100067.41
2023-03-12T22:58:36.225Z,100067.28
2023-03-12T23:01:10.459Z,100068.25
2023-03-12T23:03:39.766Z,100067.03
2023-03-12T23:06:21.055Z,100058.81
2023-03-12T23:08:48.670Z,100059.66
2023-03-12T23:11:17.330Z,100054.97
2023-03-12T23:13:45.872Z,100052.00
2023-03-12T23:16:16.983Z,100049.91
2023-03-12T23:18:44.669Z,100036.06
2023-03-12T23:21:16.490Z,100040.94
2023-03-12T23:23:44.066Z,100034.06
2023-03-12T23:26:26.990Z,100030.63
2023-03-12T23:28:59.141Z,100023.53
2023-03-12T23:31:28.266Z,100006.63
2023-03-12T23:33:56.762Z,100002.19
2023-03-12T23:36:24.647Z,99984.34
2023-03-12T23:38:52.041Z,99992.31
2023-03-12T23:41:25.483Z,99974.41
2023-03-12T23:43:53.405Z,99962.78
2023-03-12T23:46:20.406Z,99955.44
2023-03-12T23:48:47.808Z,99955.06
2023-03-12T23:51:23.962Z,99940.75
2023-03-12T23:53:59.159Z,99942.47
2023-03-12T23:56:32.235Z,99929.13
2023-03-12T23:58:59.203Z,99927.38
